createdAt,value
2022-11-19T00:02:25.239Z,-2.30
2022-11-19T00:04:53.858Z,-2.30
2022-11-19T00:07:22.513Z,-2.30
2022-11-19T00:09:51.313Z,-2.30
2022-11-19T00:12:38.102Z,-2.20
2022-11-19T00:15:07.817Z,-2.20
2022-11-19T00:17:38.055Z,-2.20
2022-11-19T00:20:07.272Z,-2.20
2022-11-19T00:22:35.873Z,-2.20
2022-11-19T00:25:05.064Z,-2.20
2022-11-19T00:27:35.221Z,-2.30
2022-11-19T00:30:10.965Z,-2.30
2022-11-19T00:32:50.538Z,-2.40
2022-11-19T00:35:19.419Z,-2.30
2022-11-19T00:37:48.078Z,-2.30
2022-11-19T00:40:20.354Z,-2.40
2022-11-19T00:43:02.664Z,-2.40
2022-11-19T00:45:34.367Z,-2.30
2022-11-19T00:48:04.615Z,-2.30
2022-11-19T00:50:35.144Z,-2.30
2022-11-19T00:53:04.176Z,-2.30
2022-11-19T00:55:35.475Z,-2.30
2022-11-19T00:58:05.611Z,-2.30
2022-11-19T01:00:35.806Z,-2.30
2022-11-19T01:03:10.937Z,-2.30
2022-11-19T01:05:46.171Z,-2.30
2022-11-19T01:08:19.292Z,-2.30
2022-11-19T01:10:48.159Z,-2.20
2022-11-19T01:13:38.741Z,-2.20
2022-11-19T01:16:11.298Z,-2.30
2022-11-19T01:18:47.387Z,-2.30
2022-11-19T01:21:19.551Z,-2.30
2022-11-19T01:23:53.120Z,-2.20
2022-11-19T01:26:25.456Z,-2.20
2022-11-19T01:28:56.714Z,-2.20
2022-11-19T01:31:27.887Z,-2.20
2022-11-19T01:34:02.065Z,-2.20
2022-11-19T01:36:34.890Z,-2.20
2022-11-19T01:39:03.588Z,-2.10
2022-11-19T01:41:36.557Z,-2.20
2022-11-19T01:44:12.323Z,-2.20
2022-11-19T01:46:42.200Z,-2.20
2022-11-19T01:49:22.226Z,-2.20
2022-11-19T01:52:00.301Z,-2.10
2022-11-19T01:54:41.529Z,-2.10
2022-11-19T01:57:19.984Z,-2.10
2022-11-19T01:59:57.853Z,-2.10
2022-11-19T02:02:33.873Z,-2.20
2022-11-19T02:05:11.515Z,-2.10
2022-11-19T02:07:49.382Z,-2.10
2022-11-19T02:10:29.245Z,-2.20
2022-11-19T02:13:17.294Z,-2.30
2022-11-19T02:16:00.469Z,-2.30
2022-11-19T02:18:50.469Z,-2.30
2022-11-19T02:21:37.994Z,-2.30
2022-11-19T02:24:53.111Z,-2.40
2022-11-19T02:28:04.349Z,-2.40
2022-11-19T02:30:46.331Z,-2.30
2022-11-19T02:33:24.479Z,-2.30
2022-11-19T02:36:03.148Z,-2.30
2022-11-19T02:38:43.987Z,-2.30
2022-11-19T02:41:40.105Z,-2.30
2022-11-19T02:44:40.590Z,-2.30
2022-11-19T02:47:17.484Z,-2.30
2022-11-19T02:49:53.176Z,-2.30
2022-11-19T02:52:28.258Z,-2.20
2022-11-19T02:55:02.930Z,-2.20
2022-11-19T02:57:34.983Z,-2.30
2022-11-19T03:00:33.776Z,-2.30
2022-11-19T03:03:27.541Z,-2.30
2022-11-19T03:06:03.327Z,-2.20
2022-11-19T03:08:32.056Z,-2.30
2022-11-19T03:11:17.723Z,-2.40
2022-11-19T03:14:14.921Z,-2.30
2022-11-19T03:16:50.993Z,-2.30
2022-11-19T03:19:35.111Z,-2.30
2022-11-19T03:22:11.903Z,-2.40
2022-11-19T03:24:49.286Z,-2.40
2022-11-19T03:27:26.842Z,-2.30
2022-11-19T03:30:00.419Z,-2.30
2022-11-19T03:32:37.824Z,-2.30
2022-11-19T03:35:19.542Z,-2.30
2022-11-19T03:37:56.959Z,-2.30
2022-11-19T03:40:31.797Z,-2.40
2022-11-19T03:43:08.968Z,-2.40
2022-11-19T03:45:48.236Z,-2.40
2022-11-19T03:48:26.159Z,-2.40
2022-11-19T03:51:04.877Z,-2.30
2022-11-19T03:53:35.720Z,-2.30
2022-11-19T03:56:10.268Z,-2.40
2022-11-19T03:58:41.081Z,-2.40
2022-11-19T04:01:11.891Z,-2.40
2022-11-19T04:03:40.860Z,-2.40
2022-11-19T04:06:14.176Z,-2.40
2022-11-19T04:08:45.693Z,-2.40
2022-11-19T04:13:50.104Z,-2.40
2022-11-19T04:16:20.738Z,-2.40
2022-11-19T04:18:51.188Z,-2.40
2022-11-19T04:21:23.950Z,-2.40
2022-11-19T04:23:54.022Z,-2.30
2022-11-19T04:26:22.641Z,-2.30
2022-11-19T04:28:52.160Z,-2.20
2022-11-19T04:31:22.799Z,-2.20
2022-11-19T04:33:56.532Z,-2.10
2022-11-19T04:36:27.639Z,-2.20
2022-11-19T04:38:58.200Z,-2.20
2022-11-19T04:41:30.298Z,-2.20
2022-11-19T04:43:59.822Z,-2.30
2022-11-19T04:46:30.085Z,-2.20
2022-11-19T04:49:00.702Z,-2.20
2022-11-19T04:51:36.638Z,-2.20
2022-11-19T04:54:10.204Z,-2.20
2022-11-19T04:56:41.658Z,-2.20
2022-11-19T04:59:13.348Z,-2.10
2022-11-19T05:01:43.808Z,-2.20
2022-11-19T05:04:15.996Z,-2.20
2022-11-19T05:06:48.429Z,-2.20
2022-11-19T05:09:19.568Z,-2.20
2022-11-19T05:11:50.551Z,-2.20
2022-11-19T05:14:19.207Z,-2.20
2022-11-19T05:16:50.607Z,-2.20
2022-11-19T05:19:20.528Z,-2.10
2022-11-19T05:21:53.009Z,-2.20
2022-11-19T05:24:21.632Z,-2.20
2022-11-19T05:26:50.251Z,-2.20
2022-11-19T05:29:20.018Z,-2.20
2022-11-19T05:31:50.622Z,-2.20
2022-11-19T05:34:20.137Z,-2.20
2022-11-19T05:36:52.509Z,-2.20
2022-11-19T05:39:27.688Z,-2.10
2022-11-19T05:41:59.060Z,-2.20
2022-11-19T05:44:30.046Z,-2.10
2022-11-19T05:47:00.276Z,-2.00
2022-11-19T05:49:30.999Z,-2.00
2022-11-19T05:52:01.930Z,-2.00
2022-11-19T05:54:32.242Z,-2.00
2022-11-19T05:57:09.510Z,-2.00
2022-11-19T05:59:43.825Z,-2.00
2022-11-19T06:02:17.277Z,-2.10
2022-11-19T06:04:47.552Z,-2.10
2022-11-19T06:07:19.419Z,-2.10
2022-11-19T06:09:51.183Z,-2.10
2022-11-19T06:12:23.184Z,-2.10
2022-11-19T06:14:54.097Z,-2.20
2022-11-19T06:17:25.903Z,-2.10
2022-11-19T06:19:55.974Z,-2.10
2022-11-19T06:22:29.645Z,-2.10
2022-11-19T06:24:58.236Z,-2.00
2022-11-19T06:27:27.431Z,-2.10
2022-11-19T06:29:58.898Z,-2.10
2022-11-19T06:32:31.111Z,-2.00
2022-11-19T06:35:02.586Z,-2.00
2022-11-19T06:37:37.590Z,-2.00
2022-11-19T06:40:10.136Z,-2.00
2022-11-19T06:42:39.755Z,-1.90
2022-11-19T06:45:12.381Z,-1.90
2022-11-19T06:47:43.019Z,-2.00
2022-11-19T06:50:14.580Z,-1.90
2022-11-19T06:52:49.401Z,-1.90
2022-11-19T06:55:18.800Z,-1.90
2022-11-19T06:57:49.252Z,-1.90
2022-11-19T07:00:19.828Z,-1.90
2022-11-19T07:02:48.879Z,-1.80
2022-11-19T07:05:20.389Z,-1.80
2022-11-19T07:08:02.651Z,-1.80
2022-11-19T07:10:39.793Z,-1.80
2022-11-19T07:13:15.378Z,-1.80
2022-11-19T07:15:50.534Z,-1.80
2022-11-19T07:18:24.993Z,-1.70
2022-11-19T07:20:55.147Z,-1.70
2022-11-19T07:23:36.107Z,-1.60
2022-11-19T07:26:08.334Z,-1.60
2022-11-19T07:28:41.621Z,-1.60
2022-11-19T07:31:38.895Z,-1.60
2022-11-19T07:34:13.224Z,-1.50
2022-11-19T07:36:42.592Z,-1.40
2022-11-19T07:39:13.849Z,-1.40
2022-11-19T07:42:00.564Z,-1.40
2022-11-19T07:44:29.741Z,-1.30
2022-11-19T07:46:58.475Z,-1.20
2022-11-19T07:49:27.670Z,-1.20
2022-11-19T07:51:58.359Z,-1.10
2022-11-19T07:54:31.831Z,-1.00
2022-11-19T07:57:01.196Z,-1.00
2022-11-19T07:59:31.595Z,-1.00
2022-11-19T08:02:01.962Z,-1.00
2022-11-19T08:04:33.020Z,-1.00
2022-11-19T08:07:04.277Z,-1.00
2022-11-19T08:09:38.276Z,-1.00
2022-11-19T08:12:10.948Z,-0.90
2022-11-19T08:14:43.046Z,-0.90
2022-11-19T08:17:30.286Z,-0.90
2022-11-19T08:19:58.949Z,-0.90
2022-11-19T08:22:31.189Z,-0.90
2022-11-19T08:25:10.124Z,-0.90
2022-11-19T08:27:44.272Z,-0.80
2022-11-19T08:30:14.528Z,-0.80
2022-11-19T08:32:43.869Z,-0.80
2022-11-19T08:35:12.525Z,-0.80
2022-11-19T08:37:41.444Z,-0.80
2022-11-19T08:40:12.628Z,-0.70
2022-11-19T08:42:58.845Z,-0.60
2022-11-19T08:45:28.723Z,-0.60
2022-11-19T08:47:58.379Z,-0.60
2022-11-19T08:50:27.582Z,-0.50
2022-11-19T08:52:58.057Z,-0.60
2022-11-19T08:55:29.939Z,-0.50
2022-11-19T08:58:02.949Z,-0.50
2022-11-19T09:00:32.886Z,-0.40
2022-11-19T09:03:01.745Z,-0.50
2022-11-19T09:05:30.463Z,-0.60
2022-11-19T09:07:59.161Z,-0.60
2022-11-19T09:10:29.628Z,-0.60
2022-11-19T09:12:58.311Z,-0.60
2022-11-19T09:15:27.144Z,-0.60
2022-11-19T09:17:55.725Z,-0.60
2022-11-19T09:20:24.900Z,-0.60
2022-11-19T09:22:53.567Z,-0.70
2022-11-19T09:25:22.339Z,-0.70
2022-11-19T09:27:52.857Z,-0.70
2022-11-19T09:30:21.701Z,-0.70
2022-11-19T09:32:50.465Z,-0.70
2022-11-19T09:35:19.416Z,-0.70
2022-11-19T09:37:48.063Z,-0.70
2022-11-19T09:40:20.799Z,-0.70
2022-11-19T09:43:05.997Z,-0.70
2022-11-19T09:45:47.655Z,-0.70
2022-11-19T09:48:29.598Z,-0.60
2022-11-19T09:51:02.100Z,-0.50
2022-11-19T09:53:36.077Z,-0.40
2022-11-19T09:56:04.721Z,-0.40
2022-11-19T09:58:39.329Z,-0.40
2022-11-19T10:01:08.437Z,-0.20
2022-11-19T10:03:40.017Z,-0.20
2022-11-19T10:06:26.940Z,-0.30
2022-11-19T10:09:20.732Z,-0.40
2022-11-19T10:12:00.330Z,-0.40
2022-11-19T10:14:46.503Z,-0.50
2022-11-19T10:17:23.586Z,-0.40
2022-11-19T10:20:08.381Z,-0.40
2022-11-19T10:22:40.998Z,-0.40
2022-11-19T10:25:19.180Z,-0.40
2022-11-19T10:27:52.447Z,-0.50
2022-11-19T10:30:24.606Z,-0.50
2022-11-19T10:32:58.903Z,-0.70
2022-11-19T10:35:31.837Z,-0.80
2022-11-19T10:38:03.483Z,-0.90
2022-11-19T10:40:42.020Z,-1.00
2022-11-19T10:43:23.401Z,-1.00
2022-11-19T10:45:53.751Z,-1.10
2022-11-19T10:48:25.266Z,-1.10
2022-11-19T10:50:56.508Z,-1.20
2022-11-19T10:53:29.466Z,-1.20
2022-11-19T10:56:01.194Z,-1.10
2022-11-19T10:58:33.793Z,-1.00
2022-11-19T11:01:06.829Z,-1.00
2022-11-19T11:03:47.132Z,-1.00
2022-11-19T11:06:15.793Z,-1.00
2022-11-19T11:08:52.551Z,-1.00
2022-11-19T11:11:26.258Z,-1.00
2022-11-19T11:14:26.948Z,-1.10
2022-11-19T11:17:25.322Z,-1.10
2022-11-19T11:20:04.152Z,-1.10
2022-11-19T11:22:34.245Z,-1.10
2022-11-19T11:25:22.855Z,-1.00
2022-11-19T11:28:06.802Z,-0.70
2022-11-19T11:30:36.293Z,-0.50
2022-11-19T11:33:32.027Z,-0.30
2022-11-19T11:36:05.246Z,-0.10
2022-11-19T11:38:41.232Z,0.10
2022-11-19T11:41:56.413Z,0.10
2022-11-19T11:44:04.321Z,0.10
2022-11-19T11:46:39.720Z,0.20
2022-11-19T11:49:22.533Z,0.20
2022-11-19T11:51:59.127Z,0.30
2022-11-19T11:54:27.921Z,0.40
2022-11-19T11:57:16.011Z,0.50
2022-11-19T11:59:45.277Z,0.50
2022-11-19T12:02:22.770Z,0.50
2022-11-19T12:04:54.880Z,0.50
2022-11-19T12:07:43.640Z,0.60
2022-11-19T12:10:25.226Z,0.50
2022-11-19T12:13:13.062Z,0.50
2022-11-19T12:15:53.895Z,0.50
2022-11-19T12:18:31.093Z,0.50
2022-11-19T12:21:11.499Z,0.50
2022-11-19T12:24:09.441Z,0.50
2022-11-19T12:26:46.881Z,0.40
2022-11-19T12:29:26.124Z,0.50
2022-11-19T12:32:10.654Z,0.50
2022-11-19T12:35:15.141Z,0.50
2022-11-19T12:38:05.084Z,0.40
2022-11-19T12:40:43.703Z,0.40
2022-11-19T12:43:24.581Z,0.40
2022-11-19T12:46:01.407Z,0.30
2022-11-19T12:48:55.715Z,0.20
2022-11-19T12:51:35.083Z,0.20
2022-11-19T12:54:30.199Z,0.20
2022-11-19T12:57:18.062Z,0.20
2022-11-19T13:00:06.328Z,0.20
2022-11-19T13:02:41.969Z,0.10
2022-11-19T13:05:18.418Z,0.10
2022-11-19T13:07:53.345Z,0.10
2022-11-19T13:10:27.727Z,0.10
2022-11-19T13:12:58.438Z,0.10
2022-11-19T13:15:33.145Z,0.10
2022-11-19T13:18:05.036Z,0.10
2022-11-19T13:20:55.059Z,0.10
2022-11-19T13:23:28.780Z,0.00
2022-11-19T13:26:03.814Z,0.00
2022-11-19T13:28:38.991Z,0.00
2022-11-19T13:31:14.392Z,0.00
2022-11-19T13:33:50.739Z,-0.10
2022-11-19T13:36:25.572Z,-0.10
2022-11-19T13:38:58.485Z,0.00
2022-11-19T13:41:32.616Z,-0.10
2022-11-19T13:44:18.886Z,-0.10
2022-11-19T13:46:51.200Z,-0.20
2022-11-19T13:49:24.888Z,-0.40
2022-11-19T13:51:57.292Z,-0.50
2022-11-19T13:54:28.075Z,-0.70
2022-11-19T13:56:59.543Z,-0.90
2022-11-19T13:59:33.075Z,-1.00
2022-11-19T14:02:15.327Z,-1.00
2022-11-19T14:05:03.060Z,-1.10
2022-11-19T14:07:44.009Z,-1.10
2022-11-19T14:10:24.142Z,-1.10
2022-11-19T14:13:09.894Z,-1.10
2022-11-19T14:16:10.541Z,-1.20
2022-11-19T14:18:59.468Z,-1.20
2022-11-19T14:22:05.543Z,-1.40
2022-11-19T14:25:16.301Z,-1.50
2022-11-19T14:27:46.245Z,-1.70
2022-11-19T14:30:45.381Z,-1.90
2022-11-19T14:33:58.792Z,-1.90
2022-11-19T14:36:58.022Z,-2.10
2022-11-19T14:39:33.701Z,-2.30
2022-11-19T14:42:15.924Z,-2.40
2022-11-19T14:44:45.366Z,-2.50
2022-11-19T14:47:34.476Z,-2.60
2022-11-19T14:50:19.473Z,-2.60
2022-11-19T14:52:53.923Z,-2.20
2022-11-19T14:55:24.529Z,-2.60
2022-11-19T14:57:59.896Z,-2.70
2022-11-19T15:00:32.398Z,-2.70
2022-11-19T15:03:04.204Z,-2.80
2022-11-19T15:05:36.211Z,-2.90
2022-11-19T15:08:41.194Z,-2.90
2022-11-19T15:11:12.477Z,-2.80
2022-11-19T15:13:41.891Z,-3.10
2022-11-19T15:16:13.047Z,-3.10
2022-11-19T15:19:08.259Z,-3.10
2022-11-19T15:22:10.984Z,-3.20
2022-11-19T15:25:12.491Z,-3.20
2022-11-19T15:28:00.125Z,-3.30
2022-11-19T15:30:39.296Z,-3.30
2022-11-19T15:33:36.192Z,-3.40
2022-11-19T15:36:28.886Z,-3.50
2022-11-19T15:39:03.781Z,-3.70
2022-11-19T15:41:38.266Z,-3.70
2022-11-19T15:44:10.314Z,-3.80
2022-11-19T15:46:48.024Z,-3.80
2022-11-19T15:49:22.131Z,-3.90
2022-11-19T15:52:17.564Z,-4.00
2022-11-19T15:54:46.860Z,-4.00
2022-11-19T15:57:24.846Z,-4.10
2022-11-19T15:59:58.119Z,-4.20
2022-11-19T16:02:34.513Z,-4.20
2022-11-19T16:05:03.271Z,-4.30
2022-11-19T16:07:33.845Z,-4.30
2022-11-19T16:10:02.754Z,-4.30
2022-11-19T16:12:48.903Z,-4.20
2022-11-19T16:15:37.555Z,-4.10
2022-11-19T16:18:13.334Z,-4.00
2022-11-19T16:20:43.579Z,-4.00
2022-11-19T16:23:17.827Z,-3.90
2022-11-19T16:25:47.151Z,-3.90
2022-11-19T16:28:17.485Z,-3.90
2022-11-19T16:30:48.957Z,-3.90
2022-11-19T16:33:21.033Z,-3.90
2022-11-19T16:35:53.135Z,-3.80
2022-11-19T16:38:29.219Z,-3.80
2022-11-19T16:41:30.635Z,-3.70
2022-11-19T16:44:00.415Z,-3.70
2022-11-19T16:46:31.151Z,-3.70
2022-11-19T16:49:01.416Z,-3.60
2022-11-19T16:51:40.831Z,-3.50
2022-11-19T16:54:12.068Z,-3.50
2022-11-19T16:56:44.504Z,-3.50
2022-11-19T16:59:21.691Z,-3.50
2022-11-19T17:01:55.478Z,-3.50
2022-11-19T17:04:26.767Z,-3.60
2022-11-19T17:06:56.119Z,-3.60
2022-11-19T17:09:37.267Z,-3.60
2022-11-19T17:12:24.013Z,-3.50
2022-11-19T17:14:55.922Z,-3.50
2022-11-19T17:17:36.904Z,-3.50
2022-11-19T17:20:41.461Z,-3.40
2022-11-19T17:23:17.509Z,-3.30
2022-11-19T17:25:54.664Z,-3.30
2022-11-19T17:28:35.269Z,-3.30
2022-11-19T17:31:07.226Z,-3.20
2022-11-19T17:33:36.931Z,-3.30
2022-11-19T17:36:12.572Z,-3.40
2022-11-19T17:38:41.277Z,-3.40
2022-11-19T17:41:16.547Z,-3.40
2022-11-19T17:44:03.081Z,-3.40
2022-11-19T17:46:31.864Z,-3.30
2022-11-19T17:49:00.713Z,-3.30
2022-11-19T17:51:29.476Z,-3.30
2022-11-19T17:53:58.257Z,-3.20
2022-11-19T17:56:29.750Z,-3.10
2022-11-19T17:58:59.880Z,-3.10
2022-11-19T18:01:28.869Z,-3.00
2022-11-19T18:03:57.609Z,-3.10
2022-11-19T18:06:26.401Z,-3.10
2022-11-19T18:08:55.055Z,-3.20
2022-11-19T18:11:26.377Z,-3.30
2022-11-19T18:13:59.961Z,-3.20
2022-11-19T18:16:34.349Z,-3.30
2022-11-19T18:19:03.229Z,-3.30
2022-11-19T18:21:31.854Z,-3.30
2022-11-19T18:24:00.536Z,-3.20
2022-11-19T18:26:29.200Z,-3.20
2022-11-19T18:28:59.279Z,-3.10
2022-11-19T18:31:29.751Z,-3.00
2022-11-19T18:33:58.729Z,-2.90
2022-11-19T18:36:27.471Z,-2.90
2022-11-19T18:38:56.878Z,-2.90
2022-11-19T18:41:25.968Z,-2.90
2022-11-19T18:44:12.082Z,-2.80
2022-11-19T18:46:42.533Z,-2.80
2022-11-19T18:49:11.290Z,-2.80
2022-11-19T18:51:39.900Z,-2.70
2022-11-19T18:54:08.569Z,-2.80
2022-11-19T18:56:37.448Z,-2.80
2022-11-19T18:59:06.207Z,-2.80
2022-11-19T19:01:35.397Z,-2.70
2022-11-19T19:04:05.705Z,-2.70
2022-11-19T19:06:34.604Z,-2.70
2022-11-19T19:09:03.444Z,-2.70
2022-11-19T19:11:49.453Z,-2.70
2022-11-19T19:14:18.480Z,-2.70
2022-11-19T19:16:47.237Z,-2.70
2022-11-19T19:19:19.469Z,-2.70
2022-11-19T19:21:48.388Z,-2.70
2022-11-19T19:24:17.552Z,-2.70
2022-11-19T19:26:46.256Z,-2.60
2022-11-19T19:29:14.877Z,-2.60
2022-11-19T19:31:43.648Z,-2.60
2022-11-19T19:34:12.809Z,-2.70
2022-11-19T19:36:43.135Z,-2.70
2022-11-19T19:39:11.807Z,-2.70
2022-11-19T19:41:40.435Z,-2.70
2022-11-19T19:44:10.541Z,-2.80
2022-11-19T19:46:39.208Z,-2.90
2022-11-19T19:49:08.241Z,-2.90
2022-11-19T19:51:36.954Z,-2.90
2022-11-19T19:54:07.589Z,-3.00
2022-11-19T19:56:36.399Z,-3.00
2022-11-19T19:59:05.254Z,-3.10
2022-11-19T20:01:36.294Z,-3.10
2022-11-19T20:04:06.641Z,-3.20
2022-11-19T20:06:36.682Z,-3.20
2022-11-19T20:09:21.800Z,-3.20
2022-11-19T20:11:50.479Z,-3.30
2022-11-19T20:14:19.217Z,-3.40
2022-11-19T20:16:47.900Z,-3.50
2022-11-19T20:19:16.671Z,-3.60
2022-11-19T20:21:47.295Z,-3.60
2022-11-19T20:24:18.836Z,-3.60
2022-11-19T20:26:47.586Z,-3.90
2022-11-19T20:29:17.845Z,-3.70
2022-11-19T20:31:48.023Z,-3.70
2022-11-19T20:34:18.046Z,-3.70
2022-11-19T20:36:47.054Z,-3.70
2022-11-19T20:39:17.232Z,-3.80
2022-11-19T20:42:03.689Z,-3.70
2022-11-19T20:44:32.617Z,-3.80
2022-11-19T20:47:04.130Z,-3.80
2022-11-19T20:49:36.031Z,-3.80
2022-11-19T20:52:05.420Z,-3.80
2022-11-19T20:54:37.088Z,-3.90
2022-11-19T20:57:07.872Z,-3.90
2022-11-19T20:59:36.785Z,-3.90
2022-11-19T21:02:06.871Z,-4.00
2022-11-19T21:04:37.356Z,-4.00
2022-11-19T21:07:06.749Z,-4.00
2022-11-19T21:09:37.659Z,-4.10
2022-11-19T21:12:06.756Z,-4.00
2022-11-19T21:14:35.364Z,-4.10
2022-11-19T21:17:04.125Z,-4.10
2022-11-19T21:19:32.866Z,-4.10
2022-11-19T21:22:01.649Z,-4.00
2022-11-19T21:24:30.726Z,-4.00
2022-11-19T21:27:01.260Z,-4.00
2022-11-19T21:29:30.097Z,-4.00
2022-11-19T21:31:58.829Z,-4.00
2022-11-19T21:34:27.559Z,-4.00
2022-11-19T21:36:58.328Z,-4.00
2022-11-19T21:39:27.496Z,-4.00
2022-11-19T21:41:57.138Z,-3.90
2022-11-19T21:44:27.295Z,-4.00
2022-11-19T21:46:56.216Z,-3.90
2022-11-19T21:49:24.873Z,-3.90
2022-11-19T21:51:55.380Z,-3.80
2022-11-19T21:54:24.165Z,-3.80
2022-11-19T21:56:53.189Z,-3.80
2022-11-19T21:59:22.144Z,-3.80
2022-11-19T22:01:54.863Z,-3.80
2022-11-19T22:04:23.856Z,-3.80
2022-11-19T22:06:53.142Z,-3.80
2022-11-19T22:09:22.048Z,-3.80
2022-11-19T22:11:51.060Z,-3.80
2022-11-19T22:14:19.785Z,-3.90
2022-11-19T22:16:48.471Z,-3.90
2022-11-19T22:19:19.500Z,-4.00
2022-11-19T22:21:48.653Z,-4.10
2022-11-19T22:27:03.811Z,-4.00
2022-11-19T22:29:32.572Z,-4.00
2022-11-19T22:32:01.208Z,-3.90
2022-11-19T22:34:31.528Z,-3.90
2022-11-19T22:37:00.869Z,-3.90
2022-11-19T22:39:29.557Z,-3.80
2022-11-19T22:41:58.261Z,-3.80
2022-11-19T22:44:29.264Z,-3.70
2022-11-19T22:47:00.069Z,-3.70
2022-11-19T22:49:29.123Z,-3.60
2022-11-19T22:51:59.328Z,-3.70
2022-11-19T22:54:31.266Z,-3.60
2022-11-19T22:56:59.964Z,-3.60
2022-11-19T22:59:29.071Z,-3.60
2022-11-19T23:01:57.684Z,-3.60
2022-11-19T23:04:26.602Z,-3.60
2022-11-19T23:06:55.670Z,-3.60
2022-11-19T23:09:25.780Z,-3.60
2022-11-19T23:12:11.706Z,-3.60
2022-11-19T23:14:40.310Z,-3.60
2022-11-19T23:17:08.959Z,-3.60
2022-11-19T23:19:39.162Z,-3.60
2022-11-19T23:22:07.980Z,-3.60
2022-11-19T23:24:38.529Z,-3.70
2022-11-19T23:27:07.173Z,-3.60
2022-11-19T23:29:35.822Z,-3.60
2022-11-19T23:32:04.892Z,-3.60
2022-11-19T23:34:33.814Z,-3.60
2022-11-19T23:37:02.699Z,-3.70
2022-11-19T23:39:31.461Z,-3.70
2022-11-19T23:42:01.556Z,-3.80
2022-11-19T23:44:30.204Z,-3.80
2022-11-19T23:46:58.997Z,-3.90
2022-11-19T23:49:27.687Z,-4.00
2022-11-19T23:51:56.250Z,-4.10
2022-11-19T23:54:25.166Z,-4.10
2022-11-19T23:56:53.816Z,-4.10
2022-11-19T23:59:25.789Z,-4.10
